Time;durP1;ratioP1;P1;durP2;ratioP2;P2;SDS_P1;SDS_P2;PMS_P1;PMS_P2;Temp;Humidity;BMP_temperature;BMP_pressure;BME280_temperature;BME280_humidity;BME280_pressure;Samples;Min_cycle;Max_cycle;Signal;HPM_P1;HPM_P2
2022/07/25 00:00:58;;;;;;;0.90;0.70;;;;;;;17.41;63.79;100842.16;4970729;28;20246;-72
2022/07/25 00:03:24;;;;;;;0.90;0.90;;;;;;;17.40;66.64;100836.97;4981602;28;20229;-72
2022/07/25 00:05:50;;;;;;;0.70;0.70;;;;;;;17.41;66.77;100836.88;4965828;28;20229;-72
2022/07/25 00:08:17;;;;;;;1.00;0.90;;;;;;;17.41;63.01;100838.66;4971004;28;20200;-72
2022/07/25 00:10:45;;;;;;;0.60;0.60;;;;;;;17.43;62.60;100836.81;4970386;28;20202;-72
2022/07/25 00:13:11;;;;;;;1.00;0.77;;;;;;;17.46;59.22;100843.69;5019960;22;20227;-74
2022/07/25 00:15:37;;;;;;;0.87;0.87;;;;;;;17.46;60.17;100838.41;5030046;28;20569;-74
2022/07/25 00:18:04;;;;;;;1.07;0.90;;;;;;;17.46;62.88;100836.63;5009739;28;20219;-74
2022/07/25 00:20:31;;;;;;;1.23;1.00;;;;;;;17.41;66.08;100836.88;5027661;28;20278;-74
2022/07/25 00:22:57;;;;;;;1.03;0.90;;;;;;;17.42;71.55;100822.75;5002732;28;20216;-74
2022/07/25 00:25:24;;;;;;;0.80;0.80;;;;;;;17.39;73.21;100817.63;5008048;28;20203;-74
2022/07/25 00:27:51;;;;;;;0.80;0.80;;;;;;;17.31;75.04;100819.84;5029215;28;20322;-74
2022/07/25 00:30:18;;;;;;;0.77;0.77;;;;;;;17.22;75.43;100813.25;5020513;28;20536;-74
2022/07/25 00:32:44;;;;;;;1.40;0.90;;;;;;;17.15;75.11;100814.50;4998644;28;20232;-74
2022/07/25 00:35:11;;;;;;;1.70;0.87;;;;;;;17.10;72.13;100815.66;5015992;28;20284;-74
2022/07/25 00:37:38;;;;;;;2.13;1.03;;;;;;;17.03;74.67;100810.69;5012382;28;20295;-74
2022/07/25 00:40:06;;;;;;;0.83;0.70;;;;;;;16.98;67.60;100812.69;5009231;28;20227;-74
2022/07/25 00:42:33;;;;;;;0.73;0.73;;;;;;;17.01;71.21;100814.34;5011509;28;20239;-74
2022/07/25 00:45:00;;;;;;;0.90;0.83;;;;;;;16.99;73.07;100817.06;5010148;28;20200;-75
2022/07/25 00:47:27;;;;;;;2.30;1.10;;;;;;;17.03;76.90;100809.84;5007715;28;20197;-75
2022/07/25 00:49:53;;;;;;;1.00;0.90;;;;;;;17.00;71.75;100812.63;5008365;28;20283;-75
2022/07/25 00:52:19;;;;;;;1.10;0.97;;;;;;;17.10;79.84;100805.13;5007351;28;20573;-75
2022/07/25 00:54:47;;;;;;;1.17;0.90;;;;;;;17.08;80.40;100794.66;5006979;28;20220;-75
2022/07/25 00:57:13;;;;;;;1.07;0.87;;;;;;;17.02;73.77;100801.06;5013614;28;20196;-75
2022/07/25 00:59:40;;;;;;;1.20;0.97;;;;;;;17.00;71.51;100796.81;5010690;28;20196;-75
2022/07/25 01:02:07;;;;;;;2.20;0.90;;;;;;;16.96;68.77;100790.84;5005481;28;20220;-75
2022/07/25 01:04:34;;;;;;;0.90;0.80;;;;;;;16.98;69.81;100793.41;5008318;28;20199;-75
2022/07/25 01:07:01;;;;;;;1.20;0.90;;;;;;;16.95;63.50;100801.47;4991184;28;20216;-76
2022/07/25 01:09:28;;;;;;;1.10;0.87;;;;;;;16.96;68.34;100790.84;5012184;28;20209;-76
2022/07/25 01:11:54;;;;;;;1.43;1.10;;;;;;;16.94;67.75;100786.59;5005604;28;20208;-75
2022/07/25 01:14:21;;;;;;;0.93;0.80;;;;;;;16.95;64.46;100789.13;5013249;28;20221;-75
2022/07/25 01:16:47;;;;;;;1.20;1.03;;;;;;;16.96;65.95;100788.22;5009784;28;20270;-75
2022/07/25 01:19:15;;;;;;;0.80;0.80;;;;;;;16.94;65.38;100792.72;5010528;28;20197;-75
2022/07/25 01:21:43;;;;;;;0.80;0.80;;;;;;;16.95;64.55;100791.78;5011274;28;20203;-75
2022/07/25 01:24:10;;;;;;;0.60;0.60;;;;;;;16.97;69.87;100779.41;4994840;28;20208;-75
2022/07/25 01:26:36;;;;;;;2.87;0.77;;;;;;;16.96;65.89;100790.03;5008049;28;20208;-75
2022/07/25 01:29:03;;;;;;;1.10;1.00;;;;;;;16.99;69.80;100772.28;5012304;28;20546;-75
2022/07/25 01:31:30;;;;;;;1.20;1.10;;;;;;;17.02;68.76;100776.53;5014569;28;20198;-76
2022/07/25 01:33:56;;;;;;;0.90;0.90;;;;;;;16.96;62.57;100782.97;5014375;28;20244;-75
2022/07/25 01:36:23;;;;;;;1.27;0.90;;;;;;;17.01;67.35;100774.84;4996814;28;20207;-75
2022/07/25 01:38:50;;;;;;;1.10;0.80;;;;;;;16.98;62.57;100778.47;5009959;28;20687;-75
2022/07/25 01:41:17;;;;;;;1.87;0.90;;;;;;;16.98;65.32;100772.34;5015676;28;20532;-75
2022/07/25 01:43:43;;;;;;;2.83;1.20;;;;;;;16.96;67.26;100764.53;5010942;28;20216;-75
2022/07/25 01:46:10;;;;;;;1.67;1.20;;;;;;;16.99;66.23;100763.50;5021087;28;20553;-75
2022/07/25 01:48:36;;;;;;;0.90;0.90;;;;;;;17.01;69.77;100759.03;5008747;28;20581;-75
2022/07/25 01:51:02;;;;;;;0.87;0.83;;;;;;;16.99;71.06;100759.09;5009500;28;20202;-75
2022/07/25 01:53:30;;;;;;;2.63;1.13;;;;;;;16.94;70.19;100752.34;5012812;28;20219;-75
2022/07/25 01:55:59;;;;;;;1.40;1.10;;;;;;;16.89;69.44;100749.97;5009700;28;20203;-75
2022/07/25 01:58:25;;;;;;;1.60;0.93;;;;;;;16.84;67.23;100744.06;5009298;28;20208;-75
2022/07/25 02:00:52;;;;;;;1.17;1.00;;;;;;;16.90;64.59;100753.44;5013798;28;20202;-75
2022/07/25 02:03:31;;;;;;;4.63;1.07;;;;;;;16.90;63.01;100753.44;5013461;28;20224;-75
2022/07/25 02:05:58;;;;;;;0.83;0.80;;;;;;;16.92;64.37;100752.44;5010093;28;20193;-75
2022/07/25 02:08:24;;;;;;;1.07;0.80;;;;;;;16.92;64.94;100747.19;5001575;28;20207;-75
2022/07/25 02:10:51;;;;;;;1.10;1.00;;;;;;;16.91;65.67;100745.47;4999818;28;20208;-75
2022/07/25 02:13:18;;;;;;;2.10;1.03;;;;;;;16.87;67.55;100743.94;5011502;28;20229;-75
2022/07/25 02:15:45;;;;;;;1.47;0.90;;;;;;;16.87;68.31;100745.69;5010523;28;20222;-75
2022/07/25 02:18:11;;;;;;;1.10;1.00;;;;;;;16.80;67.19;100745.97;4997488;28;20208;-75
2022/07/25 02:20:38;;;;;;;1.40;1.00;;;;;;;16.84;74.88;100742.28;5016947;28;20258;-75
2022/07/25 02:23:04;;;;;;;0.83;0.83;;;;;;;16.74;68.18;100746.28;5016835;28;20226;-75
2022/07/25 02:25:31;;;;;;;1.70;1.10;;;;;;;16.72;71.30;100739.41;5008194;28;20197;-75
2022/07/25 02:27:58;;;;;;;1.23;1.13;;;;;;;16.70;71.93;100743.88;5014720;28;20206;-75
2022/07/25 02:30:26;;;;;;;2.63;0.90;;;;;;;16.64;67.88;100739.78;5011038;28;20686;-76
2022/07/25 02:32:52;;;;;;;2.33;0.87;;;;;;;16.63;68.14;100740.69;5009270;28;20227;-75
2022/07/25 02:35:19;;;;;;;2.67;1.00;;;;;;;16.63;69.17;100732.81;5013964;28;20198;-76
2022/07/25 02:37:46;;;;;;;1.47;1.00;;;;;;;16.60;69.34;100732.94;5010692;28;20276;-76
2022/07/25 02:40:13;;;;;;;0.80;0.80;;;;;;;16.60;71.07;100733.81;5014491;28;20185;-75
2022/07/25 02:42:39;;;;;;;1.13;1.00;;;;;;;16.59;75.19;100728.63;5011636;28;20789;-76
2022/07/25 02:45:07;;;;;;;0.90;0.80;;;;;;;16.58;74.67;100730.38;5012130;28;20228;-76
2022/07/25 02:47:34;;;;;;;1.53;1.10;;;;;;;16.60;75.92;100722.41;5008956;28;20197;-75
2022/07/25 02:50:01;;;;;;;1.03;0.90;;;;;;;16.57;79.28;100726.06;5009365;28;20197;-75
2022/07/25 02:52:28;;;;;;;1.23;0.87;;;;;;;16.46;70.40;100733.63;5010707;28;20585;-75
2022/07/25 02:54:54;;;;;;;1.10;0.87;;;;;;;16.44;70.75;100728.44;5007700;28;20224;-75
2022/07/25 02:57:21;;;;;;;1.37;1.10;;;;;;;16.50;80.31;100718.53;5012297;28;20202;-75
2022/07/25 02:59:47;;;;;;;1.73;0.83;;;;;;;16.42;73.48;100725.03;5014145;28;20207;-75
2022/07/25 03:02:14;;;;;;;1.33;1.10;;;;;;;16.47;79.57;100716.94;5011825;28;20222;-75
2022/07/25 03:04:42;;;;;;;1.10;1.00;;;;;;;16.38;74.02;100722.66;4998512;28;20298;-75
2022/07/25 03:07:08;;;;;;;2.57;1.17;;;;;;;16.36;75.56;100717.44;5011510;28;20746;-75
2022/07/25 03:09:35;;;;;;;0.87;0.83;;;;;;;16.35;72.88;100720.16;5004524;28;20228;-75
2022/07/25 03:12:01;;;;;;;1.40;1.00;;;;;;;16.33;71.92;100720.22;5013866;28;20609;-75
2022/07/25 03:14:28;;;;;;;1.03;0.93;;;;;;;16.36;74.56;100712.19;5008437;28;20204;-75
2022/07/25 03:16:54;;;;;;;0.83;0.83;;;;;;;16.39;79.32;100713.81;5009769;28;20203;-75
2022/07/25 03:19:21;;;;;;;1.20;0.80;;;;;;;16.33;75.98;100714.97;5016863;28;20666;-75
2022/07/25 03:21:49;;;;;;;1.10;1.00;;;;;;;16.32;73.48;100708.00;5014390;28;20202;-75
2022/07/25 03:24:15;;;;;;;1.47;1.17;;;;;;;16.39;76.85;100706.78;5011606;28;20198;-75
2022/07/25 03:26:42;;;;;;;2.50;0.90;;;;;;;16.46;81.25;100696.78;5013813;28;20258;-75
2022/07/25 03:29:08;;;;;;;1.40;1.10;;;;;;;16.45;79.03;100703.00;5017366;28;20574;-75
2022/07/25 03:31:35;;;;;;;1.63;1.10;;;;;;;16.44;78.13;100702.13;5008645;28;20556;-75
2022/07/25 03:34:01;;;;;;;1.10;0.90;;;;;;;16.44;78.84;100694.22;5012486;28;20215;-75
2022/07/25 03:36:27;;;;;;;1.10;1.00;;;;;;;16.48;80.34;100692.31;5009597;28;20199;-75
2022/07/25 03:38:56;;;;;;;1.10;1.00;;;;;;;16.46;77.24;100696.78;5017318;28;20205;-75
2022/07/25 03:41:22;;;;;;;1.10;1.00;;;;;;;16.49;76.02;100693.16;5006636;28;20225;-75
2022/07/25 03:43:49;;;;;;;1.30;1.17;;;;;;;16.50;77.63;100687.84;5010247;28;20220;-75
2022/07/25 03:46:15;;;;;;;1.17;0.97;;;;;;;16.50;73.34;100685.19;5009707;28;20604;-75
2022/07/25 03:48:41;;;;;;;1.33;1.13;;;;;;;16.54;70.24;100685.91;5003769;28;20826;-75
2022/07/25 03:51:08;;;;;;;1.23;1.03;;;;;;;16.63;69.45;100685.44;5006261;28;20546;-76
2022/07/25 03:54:00;;;;;;;1.10;1.00;;;;;;;16.71;71.07;100685.03;5013242;28;20296;-75
2022/07/25 03:56:23;;;;;;;1.20;1.10;;;;;;;16.74;73.38;100685.72;5007416;28;20656;-75
2022/07/25 03:58:50;;;;;;;1.90;1.13;;;;;;;16.77;71.00;100687.38;5006958;28;20200;-76
2022/07/25 04:01:16;;;;;;;1.40;1.30;;;;;;;16.80;73.20;100684.59;5017965;28;20693;-75
2022/07/25 04:03:43;;;;;;;2.07;1.27;;;;;;;16.86;70.90;100681.66;4991224;28;20584;-75
2022/07/25 04:06:09;;;;;;;1.43;0.97;;;;;;;16.93;68.25;100688.31;5012050;28;20650;-75
2022/07/25 04:08:35;;;;;;;1.47;1.27;;;;;;;17.05;72.36;100678.06;5022886;28;20576;-75
2022/07/25 04:11:02;;;;;;;2.97;1.27;;;;;;;17.12;69.54;100676.81;5007430;28;20232;-75
2022/07/25 04:13:29;;;;;;;1.33;1.03;;;;;;;17.19;65.68;100679.03;5006886;28;20235;-76
2022/07/25 04:15:56;;;;;;;1.23;1.13;;;;;;;17.25;67.17;100672.59;5011531;28;20196;-75
2022/07/25 04:18:22;;;;;;;2.83;1.20;;;;;;;17.33;63.96;100673.03;5012954;28;20559;-76
2022/07/25 04:20:49;;;;;;;1.77;1.40;;;;;;;17.44;67.24;100667.19;4999157;28;20229;-75
2022/07/25 04:23:15;;;;;;;1.43;1.23;;;;;;;17.53;64.59;100664.03;4984895;28;20228;-75
2022/07/25 04:25:41;;;;;;;1.20;1.10;;;;;;;17.67;65.93;100658.00;4992122;28;20567;-75
2022/07/25 04:28:08;;;;;;;1.13;1.10;;;;;;;17.76;63.54;100661.94;4988596;28;20201;-75
2022/07/25 04:30:36;;;;;;;1.30;1.00;;;;;;;17.97;62.26;100655.47;4995189;28;20582;-75
2022/07/25 04:33:02;;;;;;;0.80;0.80;;;;;;;18.17;61.28;100650.88;4990342;28;20441;-75
2022/07/25 04:35:29;;;;;;;1.40;1.30;;;;;;;18.23;61.50;100645.22;4991067;28;20234;-76
2022/07/25 04:37:55;;;;;;;1.30;1.20;;;;;;;18.21;61.58;100643.63;4989566;28;20646;-75
2022/07/25 04:40:22;;;;;;;1.20;1.10;;;;;;;18.22;61.77;100638.25;4990025;28;20230;-75
2022/07/25 04:42:48;;;;;;;1.20;1.10;;;;;;;18.28;61.41;100637.06;4987932;28;20239;-75
2022/07/25 04:45:14;;;;;;;1.33;1.10;;;;;;;18.42;61.59;100637.09;4993793;28;20189;-75
2022/07/25 04:47:42;;;;;;;4.20;1.30;;;;;;;18.47;59.84;100632.41;4985938;28;20224;-75
2022/07/25 04:50:10;;;;;;;1.10;1.00;;;;;;;18.49;61.44;100633.16;4985585;28;20709;-75
2022/07/25 04:52:36;;;;;;;1.70;1.20;;;;;;;18.53;60.96;100632.03;4992769;28;20226;-75
2022/07/25 04:55:03;;;;;;;1.37;1.20;;;;;;;18.72;60.60;100621.22;4985403;28;20223;-76
2022/07/25 04:57:30;;;;;;;1.20;1.10;;;;;;;18.89;59.68;100620.22;4984599;28;20201;-76
2022/07/25 04:59:57;;;;;;;1.20;1.10;;;;;;;19.02;58.86;100624.78;4993238;28;20215;-76
2022/07/25 05:02:24;;;;;;;1.00;1.00;;;;;;;19.04;58.29;100620.22;4991444;28;20339;-76
2022/07/25 05:04:52;;;;;;;3.40;1.10;;;;;;;19.13;59.26;100610.88;4989622;28;20192;-76
2022/07/25 05:07:19;;;;;;;1.57;1.00;;;;;;;19.20;59.07;100614.84;4994558;28;20564;-75
2022/07/25 05:09:45;;;;;;;2.10;1.20;;;;;;;19.21;60.46;100605.97;4985460;28;20201;-76
2022/07/25 05:12:12;;;;;;;1.80;1.13;;;;;;;19.23;60.94;100606.72;4990104;28;20233;-76
2022/07/25 05:14:38;;;;;;;1.37;1.07;;;;;;;19.29;61.19;100601.03;4994272;28;20213;-76
2022/07/25 05:17:05;;;;;;;1.23;1.13;;;;;;;19.43;61.44;100600.19;4994224;28;20200;-76
2022/07/25 05:19:32;;;;;;;1.70;1.60;;;;;;;19.60;60.88;100594.66;5001036;28;20201;-75
2022/07/25 05:22:01;;;;;;;1.53;1.30;;;;;;;19.76;60.05;100596.34;4998784;28;20231;-75
2022/07/25 05:24:27;;;;;;;1.37;1.20;;;;;;;19.90;61.17;100593.66;4993344;28;20204;-75
2022/07/25 05:26:54;;;;;;;1.40;1.20;;;;;;;20.00;60.19;100588.59;5000463;28;20197;-76
2022/07/25 05:29:20;;;;;;;1.30;1.20;;;;;;;20.12;60.87;100589.56;4997389;28;20205;-76
2022/07/25 05:31:47;;;;;;;1.30;1.20;;;;;;;20.18;59.83;100590.00;4991368;28;20276;-76
2022/07/25 05:34:13;;;;;;;1.17;1.00;;;;;;;20.21;60.42;100592.47;4990800;28;20209;-75
2022/07/25 05:36:40;;;;;;;1.53;1.27;;;;;;;20.35;59.93;100588.88;4999413;28;20205;-75
2022/07/25 05:39:07;;;;;;;2.13;1.20;;;;;;;20.50;58.54;100594.94;4991683;28;20622;-76
2022/07/25 05:41:34;;;;;;;1.23;1.13;;;;;;;20.65;57.44;100592.19;4994390;28;20220;-76
2022/07/25 05:44:00;;;;;;;1.87;1.30;;;;;;;20.77;56.38;100596.66;4995536;28;20216;-76
2022/07/25 05:46:27;;;;;;;1.80;1.23;;;;;;;20.81;58.22;100587.56;4998255;28;20207;-76
2022/07/25 05:48:53;;;;;;;1.27;1.17;;;;;;;20.89;57.13;100592.31;4994311;28;20203;-76
2022/07/25 05:51:19;;;;;;;4.40;1.20;;;;;;;21.03;56.04;100594.00;4992675;28;20550;-76
2022/07/25 05:53:46;;;;;;;1.50;1.20;;;;;;;21.16;56.93;100592.19;4992169;28;20603;-76
2022/07/25 05:56:14;;;;;;;1.10;1.00;;;;;;;21.27;55.24;100580.81;4991768;28;20542;-76
2022/07/25 05:58:41;;;;;;;2.80;1.30;;;;;;;21.35;55.81;100579.31;4997588;28;20212;-76
2022/07/25 06:01:07;;;;;;;1.33;1.23;;;;;;;21.47;53.56;100576.72;4994199;28;20554;-76
2022/07/25 06:03:34;;;;;;;1.30;1.20;;;;;;;21.63;55.29;100572.00;4991445;28;20283;-76
2022/07/25 06:06:00;;;;;;;1.13;1.03;;;;;;;21.76;54.82;100571.97;4989380;28;20198;-76
2022/07/25 06:08:27;;;;;;;1.97;1.20;;;;;;;21.82;55.17;100565.34;4991116;28;20203;-76
2022/07/25 06:10:54;;;;;;;1.77;1.30;;;;;;;21.96;52.34;100559.00;4971964;28;20201;-76
2022/07/25 06:13:21;;;;;;;1.20;1.10;;;;;;;22.11;53.34;100564.00;4990366;28;20232;-75
2022/07/25 06:15:48;;;;;;;3.13;1.43;;;;;;;22.13;51.97;100564.72;4988992;28;20229;-76
2022/07/25 06:18:15;;;;;;;1.80;1.10;;;;;;;22.24;53.51;100563.06;4990729;28;20201;-75
2022/07/25 06:20:41;;;;;;;1.27;1.17;;;;;;;22.39;51.87;100561.94;4977941;28;20575;-76
2022/07/25 06:23:08;;;;;;;1.70;1.40;;;;;;;22.55;53.41;100552.75;5000091;28;20228;-75
2022/07/25 06:25:34;;;;;;;1.57;1.17;;;;;;;22.69;50.62;100558.72;4990262;28;20201;-75
2022/07/25 06:28:01;;;;;;;1.23;1.10;;;;;;;22.79;50.88;100550.84;4992116;28;20205;-75
2022/07/25 06:30:29;;;;;;;1.40;1.20;;;;;;;22.92;50.10;100549.88;4996971;28;20283;-75
2022/07/25 06:32:55;;;;;;;1.17;1.07;;;;;;;22.96;50.11;100551.34;4991497;28;20228;-75
2022/07/25 06:35:22;;;;;;;1.60;1.27;;;;;;;23.11;50.24;100550.13;4992135;28;20217;-75
2022/07/25 06:37:48;;;;;;;1.43;1.27;;;;;;;23.17;52.99;100541.66;4990574;28;20972;-75
2022/07/25 06:40:14;;;;;;;2.40;1.80;;;;;;;23.29;49.79;100539.84;4983228;28;20197;-76
2022/07/25 06:42:42;;;;;;;2.40;1.30;;;;;;;23.40;51.65;100528.31;4985630;28;20240;-76
2022/07/25 06:45:11;;;;;;;1.70;1.40;;;;;;;23.54;50.04;100538.69;4990196;28;20560;-75
2022/07/25 06:47:40;;;;;;;1.50;1.40;;;;;;;23.68;50.06;100534.03;4986892;28;20200;-75
2022/07/25 06:50:08;;;;;;;1.50;1.30;;;;;;;23.80;49.62;100530.34;4990313;28;20205;-75
2022/07/25 06:52:35;;;;;;;1.63;1.52;;;;;;;23.95;48.61;100533.56;4995687;28;20642;-76
2022/07/25 06:55:01;;;;;;;1.98;1.77;;;;;;;24.09;48.54;100529.75;4990135;28;20718;-76
2022/07/25 06:57:28;;;;;;;2.00;1.45;;;;;;;24.20;48.97;100529.66;4989135;28;20212;-75
2022/07/25 06:59:54;;;;;;;1.95;1.45;;;;;;;24.35;49.29;100523.03;4984533;28;20697;-75
2022/07/25 07:02:21;;;;;;;1.60;1.42;;;;;;;24.52;47.91;100516.25;4993764;28;20228;-75
2022/07/25 07:04:49;;;;;;;2.28;1.88;;;;;;;24.68;48.21;100518.47;4997530;28;20359;-75
2022/07/25 07:07:16;;;;;;;1.67;1.58;;;;;;;24.76;47.20;100509.78;4990566;28;20201;-76
2022/07/25 07:09:43;;;;;;;3.47;1.63;;;;;;;24.89;46.79;100509.53;4993295;28;20208;-75
2022/07/25 07:12:10;;;;;;;2.33;1.60;;;;;;;24.99;47.35;100510.41;4990835;28;20233;-74
2022/07/25 07:14:37;;;;;;;2.38;1.90;;;;;;;25.16;45.43;100513.44;4991425;28;20223;-74
2022/07/25 07:17:03;;;;;;;1.73;1.60;;;;;;;25.36;45.17;100508.97;4992467;28;20270;-74
2022/07/25 07:19:30;;;;;;;1.92;1.75;;;;;;;25.53;45.10;100512.78;4991246;28;20205;-74
2022/07/25 07:21:58;;;;;;;3.95;1.80;;;;;;;25.55;45.90;100511.66;4985815;28;20311;-74
2022/07/25 07:24:24;;;;;;;2.08;1.88;;;;;;;25.69;45.29;100503.22;4984880;28;20511;-74
2022/07/25 07:26:51;;;;;;;2.10;1.90;;;;;;;25.85;44.98;100504.50;4991853;28;20208;-74
2022/07/25 07:29:17;;;;;;;1.95;1.77;;;;;;;25.93;44.26;100506.44;4992493;28;20205;-74
2022/07/25 07:31:44;;;;;;;1.92;1.73;;;;;;;25.95;44.80;100505.34;4991885;28;20446;-74
2022/07/25 07:34:10;;;;;;;2.40;2.08;;;;;;;26.03;46.46;100502.81;4991552;28;20205;-74
2022/07/25 07:36:37;;;;;;;4.88;1.92;;;;;;;26.21;44.07;100510.09;4994677;28;20495;-74
2022/07/25 07:39:05;;;;;;;2.40;2.20;;;;;;;26.32;44.69;100501.91;4988281;28;20197;-74
2022/07/25 07:41:31;;;;;;;2.53;2.05;;;;;;;26.48;44.25;100500.44;4973205;28;20208;-74
2022/07/25 07:43:57;;;;;;;2.13;1.90;;;;;;;26.55;45.00;100501.53;4988825;28;20229;-74
2022/07/25 07:46:24;;;;;;;2.65;2.20;;;;;;;26.67;44.18;100500.38;4996803;28;20194;-75
2022/07/25 07:48:50;;;;;;;2.60;2.10;;;;;;;26.80;43.60;100502.72;4975589;28;20300;-74
2022/07/25 07:51:17;;;;;;;3.17;2.10;;;;;;;26.93;43.54;100497.88;4981894;28;20205;-74
2022/07/25 07:56:29;;;;;;;2.40;1.80;;;;;;;27.26;42.50;100497.38;4989766;28;20212;-74
2022/07/25 07:58:55;;;;;;;3.67;1.95;;;;;;;27.35;43.12;100493.81;4995904;28;20201;-74
2022/07/25 08:01:23;;;;;;;2.40;2.20;;;;;;;27.41;43.06;100485.19;4988881;28;20535;-74
2022/07/25 08:03:50;;;;;;;2.42;2.20;;;;;;;27.51;42.82;100485.09;4987784;28;20315;-74
2022/07/25 08:06:17;;;;;;;3.55;2.17;;;;;;;27.69;42.80;100485.94;4992992;28;20572;-74
2022/07/25 08:08:43;;;;;;;2.67;2.20;;;;;;;27.85;41.70;100485.22;4991165;28;20212;-74
2022/07/25 08:11:10;;;;;;;2.47;2.25;;;;;;;27.87;40.99;100487.75;4985741;28;20206;-74
2022/07/25 08:13:38;;;;;;;3.15;2.45;;;;;;;27.92;41.64;100485.47;4988889;28;20305;-74
2022/07/25 08:16:05;;;;;;;2.35;2.15;;;;;;;27.97;41.85;100479.63;4989451;28;20705;-74
2022/07/25 08:18:33;;;;;;;2.20;1.98;;;;;;;28.11;41.58;100479.91;4990520;28;20288;-74
2022/07/25 08:21:01;;;;;;;2.67;2.30;;;;;;;28.28;42.03;100477.31;4988183;28;20200;-74
2022/07/25 08:23:30;;;;;;;2.40;2.20;;;;;;;28.47;41.97;100474.38;4988484;28;20217;-74
2022/07/25 08:25:56;;;;;;;2.58;2.13;;;;;;;28.69;39.77;100478.38;4988408;28;20211;-74
2022/07/25 08:28:22;;;;;;;2.33;2.13;;;;;;;28.86;39.67;100476.56;4989540;28;20215;-74
2022/07/25 08:30:50;;;;;;;2.03;1.90;;;;;;;28.84;39.97;100470.53;4988423;28;20201;-74
2022/07/25 08:33:17;;;;;;;2.38;2.17;;;;;;;28.89;40.35;100472.75;4983604;28;20220;-74
2022/07/25 08:35:48;;;;;;;3.55;2.13;;;;;;;28.92;40.61;100474.25;4997685;28;20240;-74
2022/07/25 08:38:15;;;;;;;2.38;2.17;;;;;;;29.10;38.73;100474.97;4979829;28;20280;-74
2022/07/25 08:40:41;;;;;;;2.83;2.22;;;;;;;29.29;38.52;100460.44;4992448;28;20727;-74
2022/07/25 08:43:12;;;;;;;2.63;2.38;;;;;;;29.35;40.54;100462.44;4988022;28;20221;-74
2022/07/25 08:45:44;;;;;;;2.38;2.17;;;;;;;29.38;40.59;100456.75;4988692;28;20196;-74
2022/07/25 08:48:12;;;;;;;2.58;2.38;;;;;;;29.49;39.89;100454.75;4981412;28;20205;-74
2022/07/25 08:50:39;;;;;;;2.75;2.45;;;;;;;29.56;39.26;100448.53;4981793;28;20197;-74
2022/07/25 08:53:06;;;;;;;3.30;2.33;;;;;;;29.75;38.50;100449.22;4987010;28;20899;-74
2022/07/25 08:55:32;;;;;;;3.00;2.50;;;;;;;29.87;39.53;100441.66;4987193;28;20221;-74
2022/07/25 08:57:59;;;;;;;2.90;2.60;;;;;;;29.93;37.52;100433.75;4990678;28;20201;-74
2022/07/25 09:00:27;;;;;;;2.85;2.55;;;;;;;30.07;37.81;100426.00;4985872;28;20204;-74
2022/07/25 09:02:57;;;;;;;2.83;2.50;;;;;;;30.26;38.50;100430.16;4986784;28;20233;-74
2022/07/25 09:05:27;;;;;;;3.22;2.67;;;;;;;30.46;38.80;100434.09;4988345;28;20197;-74
2022/07/25 09:07:55;;;;;;;2.92;2.33;;;;;;;30.41;38.14;100427.59;4987435;28;20208;-74
2022/07/25 09:10:23;;;;;;;2.72;2.33;;;;;;;30.44;37.76;100432.63;4982874;28;20190;-74
2022/07/25 09:12:55;;;;;;;2.92;2.58;;;;;;;30.57;36.87;100420.28;4997682;28;20735;-74
2022/07/25 09:15:26;;;;;;;2.83;2.60;;;;;;;30.78;35.57;100424.19;4993812;28;20323;-74
2022/07/25 09:17:53;;;;;;;2.85;2.30;;;;;;;30.80;37.67;100414.13;4994034;28;20209;-75
2022/07/25 09:20:21;;;;;;;3.58;2.83;;;;;;;30.83;35.76;100412.91;4984173;28;20209;-74
2022/07/25 09:22:49;;;;;;;2.70;2.40;;;;;;;30.82;36.05;100419.28;4988336;28;20221;-75
2022/07/25 09:25:23;;;;;;;3.00;2.55;;;;;;;30.87;36.07;100424.97;4974083;28;20561;-75
2022/07/25 09:27:50;;;;;;;6.07;3.38;;;;;;;30.93;35.89;100406.31;4990892;28;20200;-75
2022/07/25 09:30:17;;;;;;;4.20;2.72;;;;;;;31.07;36.40;100418.16;4989889;28;20288;-75
2022/07/25 09:32:44;;;;;;;2.95;2.65;;;;;;;31.24;35.54;100410.81;4972667;28;20221;-75
2022/07/25 09:35:11;;;;;;;2.97;2.78;;;;;;;31.33;35.22;100409.72;4993578;28;20225;-75
2022/07/25 09:37:38;;;;;;;2.80;2.60;;;;;;;31.36;34.70;100411.19;4984025;28;20209;-75
2022/07/25 09:40:14;;;;;;;5.35;2.90;;;;;;;31.49;35.00;100399.84;4985571;28;20197;-74
2022/07/25 09:42:41;;;;;;;2.80;2.60;;;;;;;31.65;34.86;100391.63;4985839;28;20233;-75
2022/07/25 09:45:10;;;;;;;3.85;2.97;;;;;;;31.84;34.28;100403.72;4978490;28;20197;-75
2022/07/25 09:47:48;;;;;;;3.28;2.70;;;;;;;31.93;34.14;100388.28;4982650;28;20207;-75
2022/07/25 09:50:16;;;;;;;3.17;2.60;;;;;;;32.01;33.03;100395.44;4992761;28;20204;-74
2022/07/25 09:52:43;;;;;;;3.63;2.75;;;;;;;32.04;34.14;100382.44;4982407;28;20221;-73
2022/07/25 09:55:12;;;;;;;5.85;2.88;;;;;;;32.04;33.82;100379.75;4994135;28;20227;-74
2022/07/25 09:57:40;;;;;;;3.13;2.78;;;;;;;32.12;33.48;100378.84;4994218;28;20779;-74
2022/07/25 10:00:08;;;;;;;3.22;2.92;;;;;;;32.16;33.77;100376.59;5003328;28;20205;-74
2022/07/25 10:02:47;;;;;;;3.38;3.08;;;;;;;32.22;32.59;100376.66;4988544;28;20220;-75
2022/07/25 10:05:15;;;;;;;3.67;3.28;;;;;;;32.26;31.70;100377.16;4994007;28;20201;-73
2022/07/25 10:07:45;;;;;;;4.00;2.85;;;;;;;32.26;32.91;100361.81;4994901;28;20833;-74
2022/07/25 10:10:23;;;;;;;4.65;3.35;;;;;;;32.32;32.58;100354.81;4991070;28;20228;-74
2022/07/25 10:13:01;;;;;;;3.20;2.85;;;;;;;32.50;31.93;100345.47;4979609;28;20236;-75
2022/07/25 10:15:43;;;;;;;4.93;3.08;;;;;;;32.57;31.65;100346.38;4989604;28;20235;-75
2022/07/25 10:18:10;;;;;;;5.10;3.20;;;;;;;32.62;32.54;100342.09;4986466;28;20205;-74
2022/07/25 10:20:37;;;;;;;3.42;3.13;;;;;;;32.60;31.36;100338.75;4987122;28;20811;-74
2022/07/25 10:23:04;;;;;;;3.75;2.88;;;;;;;32.81;32.45;100334.41;4991230;28;20229;-74
2022/07/25 10:25:31;;;;;;;3.53;3.17;;;;;;;32.63;31.38;100351.88;4989364;28;20197;-74
2022/07/25 10:28:07;;;;;;;4.53;3.65;;;;;;;32.63;32.47;100332.16;4992141;28;20205;-75
2022/07/25 10:30:35;;;;;;;4.18;3.72;;;;;;;32.70;31.80;100324.97;4994829;28;20201;-74
2022/07/25 10:33:04;;;;;;;5.15;3.50;;;;;;;32.76;32.35;100324.19;4982818;28;20218;-75
2022/07/25 10:35:30;;;;;;;4.13;3.35;;;;;;;32.89;31.08;100323.47;4984572;28;20224;-74
2022/07/25 10:37:59;;;;;;;3.88;3.35;;;;;;;33.00;30.47;100331.06;4986524;28;20201;-74
2022/07/25 10:40:32;;;;;;;4.00;3.60;;;;;;;33.07;31.20;100320.31;4992550;28;20216;-74
2022/07/25 10:43:08;;;;;;;4.10;3.70;;;;;;;33.14;31.17;100309.56;4987200;28;20221;-74
2022/07/25 10:45:39;;;;;;;4.97;3.63;;;;;;;33.21;30.82;100305.09;4995981;28;20673;-74
2022/07/25 10:48:11;;;;;;;4.07;3.67;;;;;;;33.35;29.85;100303.28;4985744;28;20260;-74
2022/07/25 10:50:50;;;;;;;5.10;3.67;;;;;;;33.50;31.47;100295.91;4981801;28;20232;-74
2022/07/25 10:53:27;;;;;;;6.18;3.88;;;;;;;33.54;30.95;100289.09;4982250;28;20220;-75
2022/07/25 10:55:57;;;;;;;5.22;4.32;;;;;;;33.53;30.38;100287.44;4982542;28;20209;-74
2022/07/25 10:58:25;;;;;;;4.25;3.88;;;;;;;33.43;30.11;100286.13;4986452;28;20279;-75
2022/07/25 11:00:52;;;;;;;7.55;4.03;;;;;;;33.33;30.94;100283.75;4986295;28;20197;-74
2022/07/25 11:03:18;;;;;;;4.25;3.67;;;;;;;33.41;30.97;100285.47;4984885;28;20217;-75
2022/07/25 11:05:45;;;;;;;4.75;3.92;;;;;;;33.39;30.32;100280.28;4983983;28;20197;-75
2022/07/25 11:08:12;;;;;;;3.95;3.63;;;;;;;33.33;29.54;100254.91;4996998;28;20205;-74
2022/07/25 11:10:39;;;;;;;4.55;3.80;;;;;;;33.48;31.10;100268.28;4975681;28;20982;-75
2022/07/25 11:13:09;;;;;;;4.93;4.22;;;;;;;33.46;29.82;100266.81;4983309;28;20236;-75
2022/07/25 11:15:37;;;;;;;4.60;3.70;;;;;;;33.38;30.25;100260.50;4988029;28;20224;-73
2022/07/25 11:18:03;;;;;;;4.45;3.83;;;;;;;33.57;30.04;100258.97;4986957;28;20235;-73
2022/07/25 11:20:30;;;;;;;5.50;3.65;;;;;;;33.63;31.99;100249.22;4986953;28;20724;-73
2022/07/25 11:22:56;;;;;;;3.80;3.42;;;;;;;33.80;29.44;100257.84;4992590;28;20578;-74
2022/07/25 11:25:23;;;;;;;3.85;3.53;;;;;;;33.86;31.33;100251.66;4992260;28;20194;-73
2022/07/25 11:27:56;;;;;;;3.67;3.13;;;;;;;33.86;29.46;100245.38;4985537;28;20848;-74